Time;durP1;ratioP1;P1;durP2;ratioP2;P2;SDS_P1;SDS_P2;PMS_P1;PMS_P2;Temp;Humidity;BMP_temperature;BMP_pressure;BME280_temperature;BME280_humidity;BME280_pressure;Samples;Min_cycle;Max_cycle;Signal;HPM_P1;HPM_P2
2021/10/30 00:01:40;;;;;;;;;;;;;;;;;;5098342;28;19916;-87
2021/10/30 00:04:05;;;;;;;;;;;;;;;;;;5098026;28;19959;-85
2021/10/30 00:06:30;;;;;;;;;;;;;;;;;;5100325;28;19912;-87
2021/10/30 00:08:56;;;;;;;;;;;;;;;;;;5099340;28;19912;-84
2021/10/30 00:11:21;;;;;;;;;;;;;;;;;;5098791;28;20326;-85
2021/10/30 00:13:47;;;;;;;;;;;;;;;;;;5098380;28;19944;-88
2021/10/30 00:16:14;;;;;;;;;;;;;;;;;;5097233;28;20329;-88
2021/10/30 00:18:39;;;;;;;;;;;;;;;;;;5097980;28;19977;-89
2021/10/30 00:21:05;;;;;;;;;;;;;;;;;;5098216;28;20308;-88
2021/10/30 00:23:30;;;;;;;;;;;;;;;;;;5097998;28;19994;-86
2021/10/30 00:25:55;;;;;;;;;;;;;;;;;;5099042;28;20073;-87
2021/10/30 00:28:21;;;;;;;;;;;;;;;;;;5098075;28;20329;-86
2021/10/30 00:30:46;;;;;;;;;;;;;;;;;;5097094;28;19923;-83
2021/10/30 00:33:11;;;;;;;;;;;;;;;;;;5098227;28;19918;-86
2021/10/30 00:35:36;;;;;;;;;;;;;;;;;;5098567;28;19920;-85
2021/10/30 00:38:02;;;;;;;;;;;;;;;;;;5099176;28;19924;-87
2021/10/30 00:40:27;;;;;;;;;;;;;;;;;;5097412;28;20358;-86
2021/10/30 00:42:52;;;;;;;;;;;;;;;;;;5102556;28;19920;-85
2021/10/30 00:45:17;;;;;;;;;;;;;;;;;;5104315;28;19984;-83
2021/10/30 00:47:43;;;;;;;;;;;;;;;;;;5103210;28;19912;-85
2021/10/30 00:50:08;;;;;;;;;;;;;;;;;;5105923;28;19920;-84
2021/10/30 00:52:34;;;;;;;;;;;;;;;;;;5098672;28;19923;-88
2021/10/30 00:54:59;;;;;;;;;;;;;;;;;;5096392;28;19922;-87
2021/10/30 00:57:26;;;;;;;;;;;;;;;;;;5096463;28;20031;-88
2021/10/30 00:59:51;;;;;;;;;;;;;;;;;;5097013;28;19944;-87
2021/10/30 01:02:16;;;;;;;;;;;;;;;;;;5097126;28;19912;-86
2021/10/30 01:04:42;;;;;;;;;;;;;;;;;;5096482;28;19938;-84
2021/10/30 01:07:07;;;;;;;;;;;;;;;;;;5097209;28;20006;-87
2021/10/30 01:09:32;;;;;;;;;;;;;;;;;;5097379;28;19912;-90
2021/10/30 01:11:57;;;;;;;;;;;;;;;;;;5099805;28;19927;-87
2021/10/30 01:14:23;;;;;;;;;;;;;;;;;;5098865;28;19927;-84
2021/10/30 01:16:55;;;;;;;;;;;;;;;;;;5099934;28;19923;-83
2021/10/30 01:19:21;;;;;;;;;;;;;;;;;;5099110;28;19912;-86
2021/10/30 01:21:46;;;;;;;;;;;;;;;;;;5098633;28;19923;-85
2021/10/30 01:24:11;;;;;;;;;;;;;;;;;;5098033;28;20015;-86
2021/10/30 01:26:36;;;;;;;;;;;;;;;;;;5098438;28;19977;-86
2021/10/30 01:29:02;;;;;;;;;;;;;;;;;;5096634;28;19920;-84
2021/10/30 01:31:28;;;;;;;;;;;;;;;;;;5098609;28;19973;-85
2021/10/30 01:33:53;;;;;;;;;;;;;;;;;;5097512;28;19916;-84
2021/10/30 01:36:21;;;;;;;;;;;;;;;;;;5096508;28;19916;-86
2021/10/30 01:38:46;;;;;;;;;;;;;;;;;;5098154;28;19931;-88
2021/10/30 01:41:12;;;;;;;;;;;;;;;;;;5097217;28;19912;-86
2021/10/30 01:43:38;;;;;;;;;;;;;;;;;;5096720;28;20384;-86
2021/10/30 01:46:04;;;;;;;;;;;;;;;;;;5097263;28;19962;-90
2021/10/30 01:48:33;;;;;;;;;;;;;;;;;;5098079;28;19916;-83
2021/10/30 01:50:59;;;;;;;;;;;;;;;;;;5096084;28;20003;-88
2021/10/30 01:53:24;;;;;;;;;;;;;;;;;;5095246;28;20000;-86
2021/10/30 01:55:50;;;;;;;;;;;;;;;;;;5096862;28;19912;-86
2021/10/30 01:58:15;;;;;;;;;;;;;;;;;;5096748;28;20354;-89
2021/10/30 02:00:42;;;;;;;;;;;;;;;;;;5096738;28;19913;-84
2021/10/30 02:03:07;;;;;;;;;;;;;;;;;;5095593;28;20011;-85
2021/10/30 02:05:32;;;;;;;;;;;;;;;;;;5098486;28;19928;-88
2021/10/30 02:07:58;;;;;;;;;;;;;;;;;;5098694;28;19912;-86
2021/10/30 02:10:23;;;;;;;;;;;;;;;;;;5101087;28;20330;-87
2021/10/30 02:12:49;;;;;;;;;;;;;;;;;;5107199;28;19938;-87
2021/10/30 02:15:14;;;;;;;;;;;;;;;;;;5115400;28;19959;-86
2021/10/30 02:17:39;;;;;;;;;;;;;;;;;;5115277;28;19916;-85
2021/10/30 02:20:06;;;;;;;;;;;;;;;;;;5112809;28;19915;-85
2021/10/30 02:22:32;;;;;;;;;;;;;;;;;;5114131;28;19951;-87
2021/10/30 02:24:57;;;;;;;;;;;;;;;;;;5114222;28;19923;-84
2021/10/30 02:27:22;;;;;;;;;;;;;;;;;;5114678;28;20003;-85
2021/10/30 02:29:48;;;;;;;;;;;;;;;;;;5116019;28;19912;-86
2021/10/30 02:32:14;;;;;;;;;;;;;;;;;;5115431;28;19920;-87
2021/10/30 02:34:40;;;;;;;;;;;;;;;;;;5116557;28;19955;-88
2021/10/30 02:37:05;;;;;;;;;;;;;;;;;;5118508;28;19946;-87
2021/10/30 02:39:31;;;;;;;;;;;;;;;;;;5117988;28;19912;-84
2021/10/30 02:41:56;;;;;;;;;;;;;;;;;;5117133;28;19923;-86
2021/10/30 02:44:21;;;;;;;;;;;;;;;;;;5114621;28;19916;-86
2021/10/30 02:46:47;;;;;;;;;;;;;;;;;;5113546;28;19912;-85
2021/10/30 02:49:12;;;;;;;;;;;;;;;;;;5113200;28;19948;-86
2021/10/30 02:51:37;;;;;;;;;;;;;;;;;;5112492;28;20275;-85
2021/10/30 02:54:03;;;;;;;;;;;;;;;;;;5114787;28;19912;-87
2021/10/30 02:56:28;;;;;;;;;;;;;;;;;;5114956;28;19916;-86
2021/10/30 02:58:53;;;;;;;;;;;;;;;;;;5116159;28;19931;-89
2021/10/30 03:01:19;;;;;;;;;;;;;;;;;;5116260;28;19931;-84
2021/10/30 03:03:44;;;;;;;;;;;;;;;;;;5117183;28;19912;-84
2021/10/30 03:06:10;;;;;;;;;;;;;;;;;;5118856;28;19911;-84
2021/10/30 03:08:35;;;;;;;;;;;;;;;;;;5118663;28;19927;-85
2021/10/30 03:11:00;;;;;;;;;;;;;;;;;;5118836;28;19917;-84
2021/10/30 03:13:26;;;;;;;;;;;;;;;;;;5117243;28;19989;-85
2021/10/30 03:15:52;;;;;;;;;;;;;;;;;;5118423;28;19943;-86
2021/10/30 03:18:17;;;;;;;;;;;;;;;;;;5118315;28;20307;-84
2021/10/30 03:20:42;;;;;;;;;;;;;;;;;;5118127;28;19912;-83
2021/10/30 03:23:08;;;;;;;;;;;;;;;;;;5119378;28;19912;-83
2021/10/30 03:25:34;;;;;;;;;;;;;;;;;;5118118;28;19943;-81
2021/10/30 03:28:00;;;;;;;;;;;;;;;;;;5116475;28;19947;-83
2021/10/30 03:30:25;;;;;;;;;;;;;;;;;;5118141;28;19979;-80
2021/10/30 03:32:50;;;;;;;;;;;;;;;;;;5119072;28;19896;-82
2021/10/30 03:35:15;;;;;;;;;;;;;;;;;;5114695;28;19975;-83
2021/10/30 03:37:41;;;;;;;;;;;;;;;;;;5108077;28;19920;-83
2021/10/30 03:40:07;;;;;;;;;;;;;;;;;;5110874;28;19924;-83
2021/10/30 03:42:33;;;;;;;;;;;;;;;;;;5113076;28;19912;-84
2021/10/30 03:44:58;;;;;;;;;;;;;;;;;;5111282;28;20405;-84
2021/10/30 03:47:24;;;;;;;;;;;;;;;;;;5107390;28;19945;-84
2021/10/30 03:49:49;;;;;;;;;;;;;;;;;;5105941;28;19920;-84
2021/10/30 03:52:15;;;;;;;;;;;;;;;;;;5103420;28;20002;-86
2021/10/30 03:54:40;;;;;;;;;;;;;;;;;;5105427;28;19912;-87
2021/10/30 03:57:06;;;;;;;;;;;;;;;;;;5106571;28;20080;-84
2021/10/30 03:59:31;;;;;;;;;;;;;;;;;;5106702;28;19994;-86
2021/10/30 04:01:57;;;;;;;;;;;;;;;;;;5105319;28;19911;-85
2021/10/30 04:04:22;;;;;;;;;;;;;;;;;;5104845;28;19912;-84
2021/10/30 04:06:47;;;;;;;;;;;;;;;;;;5104004;28;19946;-84
2021/10/30 04:09:13;;;;;;;;;;;;;;;;;;5100092;28;19920;-85
2021/10/30 04:11:38;;;;;;;;;;;;;;;;;;5098236;28;19970;-86
2021/10/30 04:14:04;;;;;;;;;;;;;;;;;;5096918;28;19923;-86
2021/10/30 04:16:29;;;;;;;;;;;;;;;;;;5097888;28;19955;-87
2021/10/30 04:18:57;;;;;;;;;;;;;;;;;;5096791;28;19912;-87
2021/10/30 04:21:23;;;;;;;;;;;;;;;;;;5097925;28;19927;-89
2021/10/30 04:23:48;;;;;;;;;;;;;;;;;;5096670;28;20324;-89
2021/10/30 04:26:13;;;;;;;;;;;;;;;;;;5096618;28;19912;-86
2021/10/30 04:28:38;;;;;;;;;;;;;;;;;;5096614;28;19912;-89
2021/10/30 04:31:07;;;;;;;;;;;;;;;;;;5097478;28;20051;-89
2021/10/30 04:33:33;;;;;;;;;;;;;;;;;;5097679;28;19919;-86
2021/10/30 04:35:58;;;;;;;;;;;;;;;;;;5096375;28;20283;-87
2021/10/30 04:38:23;;;;;;;;;;;;;;;;;;5097196;28;19911;-86
2021/10/30 04:40:49;;;;;;;;;;;;;;;;;;5097603;28;20400;-87
2021/10/30 04:43:14;;;;;;;;;;;;;;;;;;5097996;28;19912;-85
2021/10/30 04:45:40;;;;;;;;;;;;;;;;;;5098152;28;20023;-86
2021/10/30 04:48:05;;;;;;;;;;;;;;;;;;5098185;28;19920;-86
2021/10/30 04:50:31;;;;;;;;;;;;;;;;;;5097834;28;19930;-86
2021/10/30 04:52:56;;;;;;;;;;;;;;;;;;5097921;28;19912;-86
2021/10/30 04:55:22;;;;;;;;;;;;;;;;;;5099073;28;19931;-86
2021/10/30 04:57:47;;;;;;;;;;;;;;;;;;5100129;28;19969;-85
2021/10/30 05:00:13;;;;;;;;;;;;;;;;;;5102759;28;19912;-84
2021/10/30 05:02:38;;;;;;;;;;;;;;;;;;5104553;28;19912;-84
2021/10/30 05:05:03;;;;;;;;;;;;;;;;;;5104523;28;19912;-86
2021/10/30 05:07:29;;;;;;;;;;;;;;;;;;5105097;28;19912;-85
2021/10/30 05:09:54;;;;;;;;;;;;;;;;;;5103812;28;20011;-86
2021/10/30 05:12:19;;;;;;;;;;;;;;;;;;5104061;28;19912;-84
2021/10/30 05:14:44;;;;;;;;;;;;;;;;;;5105227;28;19945;-83
2021/10/30 05:17:10;;;;;;;;;;;;;;;;;;5103011;28;19927;-85
2021/10/30 05:19:35;;;;;;;;;;;;;;;;;;5105466;28;19998;-83
2021/10/30 05:22:00;;;;;;;;;;;;;;;;;;5104071;28;20303;-84
2021/10/30 05:24:25;;;;;;;;;;;;;;;;;;5106688;28;19927;-83
2021/10/30 05:26:51;;;;;;;;;;;;;;;;;;5107604;28;19912;-82
2021/10/30 05:29:16;;;;;;;;;;;;;;;;;;5105239;28;19923;-85
2021/10/30 05:31:41;;;;;;;;;;;;;;;;;;5098771;28;19947;-85
2021/10/30 05:34:06;;;;;;;;;;;;;;;;;;5101490;28;19912;-84
2021/10/30 05:36:35;;;;;;;;;;;;;;;;;;5097851;28;19948;-86
2021/10/30 05:39:00;;;;;;;;;;;;;;;;;;5098132;28;19951;-85
2021/10/30 05:41:26;;;;;;;;;;;;;;;;;;5098671;28;20344;-85
2021/10/30 05:43:51;;;;;;;;;;;;;;;;;;5097646;28;19991;-84
2021/10/30 05:46:17;;;;;;;;;;;;;;;;;;5096703;28;19995;-89
2021/10/30 05:48:43;;;;;;;;;;;;;;;;;;5098485;28;20276;-87
2021/10/30 05:51:08;;;;;;;;;;;;;;;;;;5100769;28;19920;-87
2021/10/30 05:53:33;;;;;;;;;;;;;;;;;;5100831;28;20065;-87
2021/10/30 05:55:59;;;;;;;;;;;;;;;;;;5100355;28;19912;-86
2021/10/30 05:58:24;;;;;;;;;;;;;;;;;;5100220;28;19955;-85
2021/10/30 06:00:49;;;;;;;;;;;;;;;;;;5100642;28;19920;-84
2021/10/30 06:03:15;;;;;;;;;;;;;;;;;;5101203;28;19919;-86
2021/10/30 06:05:40;;;;;;;;;;;;;;;;;;5099300;28;19916;-89
2021/10/30 06:08:05;;;;;;;;;;;;;;;;;;5100237;28;20357;-87
2021/10/30 06:10:31;;;;;;;;;;;;;;;;;;5104750;28;19942;-84
2021/10/30 06:12:57;;;;;;;;;;;;;;;;;;5112098;28;19952;-84
2021/10/30 06:15:22;;;;;;;;;;;;;;;;;;5111648;28;19911;-86
2021/10/30 06:17:48;;;;;;;;;;;;;;;;;;5102765;28;20011;-86
2021/10/30 06:20:14;;;;;;;;;;;;;;;;;;5101942;28;19997;-85
2021/10/30 06:22:42;;;;;;;;;;;;;;;;;;5100964;28;20003;-86
2021/10/30 06:25:08;;;;;;;;;;;;;;;;;;5100736;28;19912;-86
2021/10/30 06:27:33;;;;;;;;;;;;;;;;;;5100780;28;20009;-87
2021/10/30 06:29:58;;;;;;;;;;;;;;;;;;5101201;28;19912;-85
2021/10/30 06:32:23;;;;;;;;;;;;;;;;;;5100893;28;19923;-88
2021/10/30 06:34:49;;;;;;;;;;;;;;;;;;5101145;28;19923;-87
2021/10/30 06:37:14;;;;;;;;;;;;;;;;;;5100656;28;19924;-84
2021/10/30 06:39:39;;;;;;;;;;;;;;;;;;5100303;28;20018;-88
2021/10/30 06:42:05;;;;;;;;;;;;;;;;;;5101786;28;19922;-87
2021/10/30 06:44:30;;;;;;;;;;;;;;;;;;5100883;28;19926;-89
2021/10/30 06:46:55;;;;;;;;;;;;;;;;;;5101748;28;19977;-84
2021/10/30 06:49:23;;;;;;;;;;;;;;;;;;5103858;28;20033;-84
2021/10/30 06:51:51;;;;;;;;;;;;;;;;;;5106799;28;19912;-86
2021/10/30 06:54:16;;;;;;;;;;;;;;;;;;5105733;28;19916;-88
2021/10/30 06:56:41;;;;;;;;;;;;;;;;;;5105720;28;19916;-86
2021/10/30 06:59:07;;;;;;;;;;;;;;;;;;5104955;28;19912;-87
2021/10/30 07:01:35;;;;;;;;;;;;;;;;;;5104458;28;20354;-87
2021/10/30 07:04:00;;;;;;;;;;;;;;;;;;5103930;28;19974;-86
2021/10/30 07:06:25;;;;;;;;;;;;;;;;;;5105778;28;19924;-85
2021/10/30 07:08:51;;;;;;;;;;;;;;;;;;5105357;28;19966;-86
2021/10/30 07:11:16;;;;;;;;;;;;;;;;;;5104441;28;19923;-87
2021/10/30 07:13:41;;;;;;;;;;;;;;;;;;5102219;28;19911;-84
2021/10/30 07:16:07;;;;;;;;;;;;;;;;;;5100288;28;19912;-89
2021/10/30 07:18:32;;;;;;;;;;;;;;;;;;5100446;28;19923;-87
2021/10/30 07:20:57;;;;;;;;;;;;;;;;;;5100756;28;20334;-83
2021/10/30 07:23:23;;;;;;;;;;;;;;;;;;5101111;28;19922;-86
2021/10/30 07:25:49;;;;;;;;;;;;;;;;;;5099678;28;19920;-85
2021/10/30 07:28:14;;;;;;;;;;;;;;;;;;5099923;28;19951;-87
2021/10/30 07:30:39;;;;;;;;;;;;;;;;;;5099657;28;19974;-84
2021/10/30 07:33:05;;;;;;;;;;;;;;;;;;5099413;28;20385;-85
2021/10/30 07:35:30;;;;;;;;;;;;;;;;;;5102189;28;19912;-88
2021/10/30 07:38:00;;;;;;;;;;;;;;;;;;5102295;28;19920;-83
2021/10/30 07:40:26;;;;;;;;;;;;;;;;;;5104033;28;19912;-85
2021/10/30 07:42:51;;;;;;;;;;;;;;;;;;5112394;28;19939;-83
2021/10/30 07:45:17;;;;;;;;;;;;;;;;;;5107765;28;19912;-86
2021/10/30 07:47:42;;;;;;;;;;;;;;;;;;5106620;28;19947;-86
2021/10/30 07:50:07;;;;;;;;;;;;;;;;;;5105695;28;19927;-85
2021/10/30 07:52:33;;;;;;;;;;;;;;;;;;5111601;28;20398;-84
2021/10/30 07:54:58;;;;;;;;;;;;;;;;;;5114173;28;19959;-87
2021/10/30 07:57:23;;;;;;;;;;;;;;;;;;5119526;28;19904;-86
2021/10/30 07:59:51;;;;;;;;;;;;;;;;;;5118846;28;19908;-87
2021/10/30 08:02:18;;;;;;;;;;;;;;;;;;5118067;28;19949;-87
2021/10/30 08:04:43;;;;;;;;;;;;;;;;;;5117856;28;19918;-86
2021/10/30 08:07:08;;;;;;;;;;;;;;;;;;5117977;28;19958;-84
2021/10/30 08:09:33;;;;;;;;;;;;;;;;;;5117513;28;19923;-84
2021/10/30 08:11:59;;;;;;;;;;;;;;;;;;5116855;28;19900;-82
2021/10/30 08:14:24;;;;;;;;;;;;;;;;;;5118529;28;19912;-85
2021/10/30 08:16:50;;;;;;;;;;;;;;;;;;5118841;28;19939;-82
2021/10/30 08:19:15;;;;;;;;;;;;;;;;;;5119715;28;19931;-85
2021/10/30 08:21:42;;;;;;;;;;;;;;;;;;5119263;28;19904;-83
2021/10/30 08:24:07;;;;;;;;;;;;;;;;;;5119118;28;19922;-85
2021/10/30 08:26:34;;;;;;;;;;;;;;;;;;5118541;28;19919;-86
2021/10/30 08:29:00;;;;;;;;;;;;;;;;;;5118222;28;19915;-87
2021/10/30 08:31:25;;;;;;;;;;;;;;;;;;5116713;28;19979;-84
2021/10/30 08:33:54;;;;;;;;;;;;;;;;;;5116186;28;19912;-86
2021/10/30 08:36:19;;;;;;;;;;;;;;;;;;5115741;28;19912;-86
2021/10/30 08:38:45;;;;;;;;;;;;;;;;;;5107707;28;19972;-85
2021/10/30 08:41:10;;;;;;;;;;;;;;;;;;5103116;28;20250;-87
2021/10/30 08:43:35;;;;;;;;;;;;;;;;;;5101618;28;19916;-85
2021/10/30 08:46:01;;;;;;;;;;;;;;;;;;5100577;28;19916;-86
2021/10/30 08:48:28;;;;;;;;;;;;;;;;;;5100499;28;19916;-87
2021/10/30 08:50:53;;;;;;;;;;;;;;;;;;5098710;28;20363;-87
2021/10/30 08:53:19;;;;;;;;;;;;;;;;;;5098305;28;19912;-85
2021/10/30 08:55:49;;;;;;;;;;;;;;;;;;5098610;28;19926;-90
2021/10/30 08:58:20;;;;;;;;;;;;;;;;;;5103239;28;19900;-85
2021/10/30 09:00:49;;;;;;;;;;;;;;;;;;5109223;28;19912;-86
2021/10/30 09:03:15;;;;;;;;;;;;;;;;;;5099430;28;19912;-87
2021/10/30 09:05:42;;;;;;;;;;;;;;;;;;5100807;28;19896;-83
2021/10/30 09:08:08;;;;;;;;;;;;;;;;;;5110662;28;19912;-88
2021/10/30 09:10:38;;;;;;;;;;;;;;;;;;5103107;28;19912;-87
2021/10/30 09:13:05;;;;;;;;;;;;;;;;;;5101186;28;20246;-87
2021/10/30 09:15:34;;;;;;;;;;;;;;;;;;5096741;28;19979;-85
2021/10/30 09:18:00;;;;;;;;;;;;;;;;;;5097154;28;19916;-88
2021/10/30 09:20:33;;;;;;;;;;;;;;;;;;5096543;28;20293;-86
2021/10/30 09:22:58;;;;;;;;;;;;;;;;;;5096279;28;19927;-85
2021/10/30 09:25:24;;;;;;;;;;;;;;;;;;5096960;28;19961;-87
2021/10/30 09:27:51;;;;;;;;;;;;;;;;;;5098003;28;19912;-88
2021/10/30 09:30:17;;;;;;;;;;;;;;;;;;5097058;28;19912;-87
2021/10/30 09:32:50;;;;;;;;;;;;;;;;;;5099521;28;19912;-86
2021/10/30 09:35:20;;;;;;;;;;;;;;;;;;5097525;28;19999;-88
2021/10/30 09:37:49;;;;;;;;;;;;;;;;;;5096848;28;20249;-87
2021/10/30 09:40:22;;;;;;;;;;;;;;;;;;5098469;28;19919;-87
2021/10/30 09:43:07;;;;;;;;;;;;;;;;;;5098613;28;20349;-84
2021/10/30 09:45:34;;;;;;;;;;;;;;;;;;5100295;28;19923;-87
2021/10/30 09:48:02;;;;;;;;;;;;;;;;;;5098342;28;19912;-88
2021/10/30 09:50:32;;;;;;;;;;;;;;;;;;5099827;28;19931;-85
2021/10/30 09:52:58;;;;;;;;;;;;;;;;;;5099985;28;20012;-87
2021/10/30 09:55:24;;;;;;;;;;;;;;;;;;5099939;28;19920;-84
2021/10/30 09:57:57;;;;;;;;;;;;;;;;;;5099530;28;19916;-86
2021/10/30 10:00:24;;;;;;;;;;;;;;;;;;5100928;28;19912;-85
2021/10/30 10:02:51;;;;;;;;;;;;;;;;;;5098531;28;19912;-84
2021/10/30 10:05:18;;;;;;;;;;;;;;;;;;5097594;28;19916;-85
2021/10/30 10:07:43;;;;;;;;;;;;;;;;;;5097808;28;19912;-83
2021/10/30 10:10:09;;;;;;;;;;;;;;;;;;5100285;28;19913;-81
2021/10/30 10:12:34;;;;;;;;;;;;;;;;;;5106673;28;20315;-81
2021/10/30 10:15:00;;;;;;;;;;;;;;;;;;5106616;28;19955;-82
2021/10/30 10:17:26;;;;;;;;;;;;;;;;;;5098984;28;19938;-85
2021/10/30 10:19:51;;;;;;;;;;;;;;;;;;5097029;28;20361;-84
2021/10/30 10:22:17;;;;;;;;;;;;;;;;;;5096246;28;19916;-84
2021/10/30 10:24:42;;;;;;;;;;;;;;;;;;5098090;28;20245;-86
2021/10/30 10:27:08;;;;;;;;;;;;;;;;;;5096893;28;20347;-85
2021/10/30 10:29:33;;;;;;;;;;;;;;;;;;5096873;28;19923;-86
2021/10/30 10:32:06;;;;;;;;;;;;;;;;;;5103154;28;19912;-84
2021/10/30 10:34:33;;;;;;;;;;;;;;;;;;5102783;28;19912;-85
2021/10/30 10:37:14;;;;;;;;;;;;;;;;;;5101216;28;19970;-86
2021/10/30 10:39:40;;;;;;;;;;;;;;;;;;5100852;28;19913;-87
2021/10/30 10:42:07;;;;;;;;;;;;;;;;;;5101893;28;19912;-88
2021/10/30 10:44:37;;;;;;;;;;;;;;;;;;5101106;28;19912;-88
2021/10/30 10:47:03;;;;;;;;;;;;;;;;;;5101606;28;19953;-87
2021/10/30 10:52:18;;;;;;;;;;;;;;;;;;5100694;28;19912;-88
2021/10/30 10:54:52;;;;;;;;;;;;;;;;;;5099694;28;20057;-89
2021/10/30 10:57:24;;;;;;;;;;;;;;;;;;5099514;28;19923;-88
2021/10/30 10:59:56;;;;;;;;;;;;;;;;;;5099340;28;19983;-88
2021/10/30 11:02:27;;;;;;;;;;;;;;;;;;5099730;28;20372;-88
2021/10/30 11:05:07;;;;;;;;;;;;;;;;;;5099738;28;19975;-89
2021/10/30 11:07:37;;;;;;;;;;;;;;;;;;5100382;28;19912;-89
2021/10/30 11:10:12;;;;;;;;;;;;;;;;;;5102310;28;19959;-87
2021/10/30 11:12:38;;;;;;;;;;;;;;;;;;5107047;28;19904;-86
2021/10/30 11:15:03;;;;;;;;;;;;;;;;;;5118864;28;19912;-87
2021/10/30 11:17:33;;;;;;;;;;;;;;;;;;5119860;28;19900;-87
2021/10/30 11:20:08;;;;;;;;;;;;;;;;;;5119651;28;19941;-88
2021/10/30 11:22:33;;;;;;;;;;;;;;;;;;5120483;28;19911;-88
2021/10/30 11:25:01;;;;;;;;;;;;;;;;;;5113851;28;20342;-88
2021/10/30 11:27:27;;;;;;;;;;;;;;;;;;5101668;28;19967;-89
2021/10/30 11:29:53;;;;;;;;;;;;;;;;;;5101897;28;19912;-86
2021/10/30 11:32:18;;;;;;;;;;;;;;;;;;5103251;28;19912;-87
2021/10/30 11:34:51;;;;;;;;;;;;;;;;;;5104906;28;19919;-89
2021/10/30 11:37:16;;;;;;;;;;;;;;;;;;5104757;28;19963;-88
2021/10/30 11:39:44;;;;;;;;;;;;;;;;;;5099886;28;20384;-88
2021/10/30 11:42:10;;;;;;;;;;;;;;;;;;5104908;28;19919;-87
2021/10/30 11:44:50;;;;;;;;;;;;;;;;;;5107294;28;19912;-88
2021/10/30 11:47:17;;;;;;;;;;;;;;;;;;5101297;28;19912;-88
2021/10/30 11:49:42;;;;;;;;;;;;;;;;;;5100683;28;19992;-88
2021/10/30 11:52:12;;;;;;;;;;;;;;;;;;5099386;28;19912;-88
2021/10/30 11:54:37;;;;;;;;;;;;;;;;;;5099982;28;19920;-88
2021/10/30 11:57:03;;;;;;;;;;;;;;;;;;5098794;28;19977;-89
2021/10/30 11:59:30;;;;;;;;;;;;;;;;;;5098409;28;20058;-88
2021/10/30 12:01:55;;;;;;;;;;;;;;;;;;5097483;28;19912;-88
2021/10/30 12:04:22;;;;;;;;;;;;;;;;;;5098638;28;20006;-88
2021/10/30 12:06:52;;;;;;;;;;;;;;;;;;5097519;28;19958;-89
2021/10/30 12:09:18;;;;;;;;;;;;;;;;;;5098183;28;20414;-89
2021/10/30 12:11:44;;;;;;;;;;;;;;;;;;5097679;28;19924;-88
2021/10/30 12:14:10;;;;;;;;;;;;;;;;;;5098960;28;19912;-87
2021/10/30 12:16:36;;;;;;;;;;;;;;;;;;5097563;28;20326;-88
2021/10/30 12:19:02;;;;;;;;;;;;;;;;;;5098556;28;19911;-89
2021/10/30 12:21:34;;;;;;;;;;;;;;;;;;5098126;28;19912;-87
2021/10/30 12:24:02;;;;;;;;;;;;;;;;;;5099218;28;20262;-88
2021/10/30 12:26:29;;;;;;;;;;;;;;;;;;5097838;28;19969;-87
2021/10/30 12:28:55;;;;;;;;;;;;;;;;;;5097176;28;20361;-87
2021/10/30 12:31:27;;;;;;;;;;;;;;;;;;5097173;28;19948;-87
2021/10/30 12:33:52;;;;;;;;;;;;;;;;;;5098411;28;19977;-89
2021/10/30 12:36:17;;;;;;;;;;;;;;;;;;5098853;28;19920;-86
2021/10/30 12:38:42;;;;;;;;;;;;;;;;;;5097148;28;19974;-88
2021/10/30 12:41:16;;;;;;;;;;;;;;;;;;5097134;28;19923;-89
2021/10/30 12:43:42;;;;;;;;;;;;;;;;;;5097636;28;19912;-87
2021/10/30 12:46:08;;;;;;;;;;;;;;;;;;5099190;28;19923;-88
2021/10/30 12:48:37;;;;;;;;;;;;;;;;;;5097259;28;19912;-88
2021/10/30 12:51:04;;;;;;;;;;;;;;;;;;5098375;28;19920;-87
2021/10/30 12:53:32;;;;;;;;;;;;;;;;;;5098231;28;20010;-87
2021/10/30 12:56:00;;;;;;;;;;;;;;;;;;5097957;28;19916;-88
2021/10/30 12:58:45;;;;;;;;;;;;;;;;;;5095645;28;19922;-87
2021/10/30 13:01:19;;;;;;;;;;;;;;;;;;5096896;28;19912;-87
2021/10/30 13:03:45;;;;;;;;;;;;;;;;;;5098328;28;20010;-87
2021/10/30 13:06:11;;;;;;;;;;;;;;;;;;5097280;28;19920;-87
2021/10/30 13:08:51;;;;;;;;;;;;;;;;;;5097325;28;19916;-87
2021/10/30 13:11:18;;;;;;;;;;;;;;;;;;5097152;28;19916;-86
2021/10/30 13:13:44;;;;;;;;;;;;;;;;;;5098012;28;19922;-86
2021/10/30 13:16:09;;;;;;;;;;;;;;;;;;5097421;28;19912;-86
2021/10/30 13:18:34;;;;;;;;;;;;;;;;;;5096936;28;20378;-89
2021/10/30 13:20:59;;;;;;;;;;;;;;;;;;5098861;28;19923;-87
2021/10/30 13:23:25;;;;;;;;;;;;;;;;;;5097701;28;19912;-87
2021/10/30 13:25:51;;;;;;;;;;;;;;;;;;5097114;28;20019;-86
2021/10/30 13:28:17;;;;;;;;;;;;;;;;;;5096092;28;20384;-86
2021/10/30 13:30:42;;;;;;;;;;;;;;;;;;5097380;28;19912;-87
2021/10/30 13:33:07;;;;;;;;;;;;;;;;;;5096760;28;20337;-88
2021/10/30 13:35:33;;;;;;;;;;;;;;;;;;5096524;28;19912;-87
2021/10/30 13:37:58;;;;;;;;;;;;;;;;;;5096136;28;19952;-86
2021/10/30 13:40:23;;;;;;;;;;;;;;;;;;5097501;28;19955;-87
2021/10/30 13:42:48;;;;;;;;;;;;;;;;;;5097094;28;20266;-87
2021/10/30 13:45:14;;;;;;;;;;;;;;;;;;5096563;28;20338;-86
2021/10/30 13:47:39;;;;;;;;;;;;;;;;;;5098427;28;19995;-85
2021/10/30 13:50:05;;;;;;;;;;;;;;;;;;5096482;28;19967;-87
2021/10/30 13:52:30;;;;;;;;;;;;;;;;;;5097814;28;19935;-86
2021/10/30 13:54:55;;;;;;;;;;;;;;;;;;5096813;28;19923;-87
2021/10/30 13:57:20;;;;;;;;;;;;;;;;;;5101996;28;20304;-86
2021/10/30 13:59:46;;;;;;;;;;;;;;;;;;5108207;28;20118;-86
2021/10/30 14:02:11;;;;;;;;;;;;;;;;;;5105160;28;19912;-87
2021/10/30 14:04:36;;;;;;;;;;;;;;;;;;5102041;28;19916;-88
2021/10/30 14:07:02;;;;;;;;;;;;;;;;;;5103300;28;19912;-86
2021/10/30 14:09:27;;;;;;;;;;;;;;;;;;5109783;28;19916;-88
2021/10/30 14:11:52;;;;;;;;;;;;;;;;;;5109489;28;19922;-86
2021/10/30 14:14:17;;;;;;;;;;;;;;;;;;5117507;28;19916;-85
2021/10/30 14:16:43;;;;;;;;;;;;;;;;;;5118630;28;19941;-85
2021/10/30 14:19:09;;;;;;;;;;;;;;;;;;5117841;28;19912;-86
2021/10/30 14:21:35;;;;;;;;;;;;;;;;;;5113764;28;19915;-87
2021/10/30 14:24:00;;;;;;;;;;;;;;;;;;5112153;28;20384;-86
2021/10/30 14:26:25;;;;;;;;;;;;;;;;;;5110851;28;19919;-87
2021/10/30 14:28:53;;;;;;;;;;;;;;;;;;5108279;28;19920;-88
2021/10/30 14:31:18;;;;;;;;;;;;;;;;;;5106598;28;19912;-87
2021/10/30 14:33:43;;;;;;;;;;;;;;;;;;5104876;28;19973;-88
2021/10/30 14:36:09;;;;;;;;;;;;;;;;;;5102801;28;19969;-86
2021/10/30 14:38:34;;;;;;;;;;;;;;;;;;5104202;28;20247;-88
2021/10/30 14:41:00;;;;;;;;;;;;;;;;;;5103925;28;19963;-88
2021/10/30 14:43:25;;;;;;;;;;;;;;;;;;5101096;28;19912;-86
2021/10/30 14:45:52;;;;;;;;;;;;;;;;;;5099398;28;19912;-88
2021/10/30 14:48:18;;;;;;;;;;;;;;;;;;5100367;28;19927;-88
2021/10/30 14:50:43;;;;;;;;;;;;;;;;;;5100682;28;19920;-87
2021/10/30 14:53:09;;;;;;;;;;;;;;;;;;5102370;28;19926;-87
2021/10/30 14:55:38;;;;;;;;;;;;;;;;;;5101604;28;19916;-89
2021/10/30 14:58:04;;;;;;;;;;;;;;;;;;5101419;28;19916;-88
2021/10/30 15:00:29;;;;;;;;;;;;;;;;;;5102525;28;19930;-89
2021/10/30 15:02:55;;;;;;;;;;;;;;;;;;5106093;28;19941;-86
2021/10/30 15:05:20;;;;;;;;;;;;;;;;;;5110519;28;19912;-86
2021/10/30 15:07:45;;;;;;;;;;;;;;;;;;5111808;28;19912;-86
2021/10/30 15:10:11;;;;;;;;;;;;;;;;;;5112263;28;19913;-86
2021/10/30 15:12:36;;;;;;;;;;;;;;;;;;5109709;28;19911;-86
2021/10/30 15:15:02;;;;;;;;;;;;;;;;;;5106878;28;20360;-88
2021/10/30 15:17:27;;;;;;;;;;;;;;;;;;5104016;28;19920;-88
2021/10/30 15:19:52;;;;;;;;;;;;;;;;;;5100304;28;19912;-89
2021/10/30 15:22:18;;;;;;;;;;;;;;;;;;5099490;28;19931;-88
2021/10/30 15:24:43;;;;;;;;;;;;;;;;;;5101087;28;19955;-87
2021/10/30 15:27:10;;;;;;;;;;;;;;;;;;5106643;28;19912;-88
2021/10/30 15:29:35;;;;;;;;;;;;;;;;;;5108268;28;19912;-87
2021/10/30 15:32:01;;;;;;;;;;;;;;;;;;5108213;28;20326;-87
2021/10/30 15:34:26;;;;;;;;;;;;;;;;;;5107587;28;20016;-88
2021/10/30 15:36:52;;;;;;;;;;;;;;;;;;5110417;28;19928;-87
2021/10/30 15:39:17;;;;;;;;;;;;;;;;;;5114090;28;19911;-87
2021/10/30 15:41:43;;;;;;;;;;;;;;;;;;5110999;28;19912;-88
2021/10/30 15:44:09;;;;;;;;;;;;;;;;;;5102531;28;19916;-89
2021/10/30 15:46:34;;;;;;;;;;;;;;;;;;5098288;28;19920;-88
2021/10/30 15:49:00;;;;;;;;;;;;;;;;;;5098825;28;19999;-88
2021/10/30 15:51:25;;;;;;;;;;;;;;;;;;5098597;28;19920;-87
2021/10/30 15:53:50;;;;;;;;;;;;;;;;;;5097440;28;20422;-86
2021/10/30 15:56:16;;;;;;;;;;;;;;;;;;5098396;28;19922;-86
2021/10/30 15:58:41;;;;;;;;;;;;;;;;;;5098633;28;19916;-86
2021/10/30 16:01:07;;;;;;;;;;;;;;;;;;5101487;28;19943;-86
2021/10/30 16:03:32;;;;;;;;;;;;;;;;;;5102946;28;19947;-87
2021/10/30 16:05:57;;;;;;;;;;;;;;;;;;5101552;28;19912;-86
2021/10/30 16:08:23;;;;;;;;;;;;;;;;;;5098321;28;19912;-87
2021/10/30 16:10:49;;;;;;;;;;;;;;;;;;5098255;28;19923;-85
2021/10/30 16:13:14;;;;;;;;;;;;;;;;;;5097358;28;20023;-86
2021/10/30 16:15:39;;;;;;;;;;;;;;;;;;5098389;28;19916;-87
2021/10/30 16:18:04;;;;;;;;;;;;;;;;;;5098143;28;20011;-87
2021/10/30 16:20:30;;;;;;;;;;;;;;;;;;5098914;28;19912;-87
2021/10/30 16:22:55;;;;;;;;;;;;;;;;;;5098861;28;19969;-86
2021/10/30 16:25:21;;;;;;;;;;;;;;;;;;5097818;28;19912;-86
2021/10/30 16:27:47;;;;;;;;;;;;;;;;;;5097723;28;19923;-86
2021/10/30 16:30:13;;;;;;;;;;;;;;;;;;5098451;28;19912;-86
2021/10/30 16:32:39;;;;;;;;;;;;;;;;;;5098205;28;19912;-86
2021/10/30 16:35:04;;;;;;;;;;;;;;;;;;5098351;28;20364;-86
2021/10/30 16:37:30;;;;;;;;;;;;;;;;;;5097031;28;20394;-86
2021/10/30 16:39:55;;;;;;;;;;;;;;;;;;5097620;28;19912;-86
2021/10/30 16:42:21;;;;;;;;;;;;;;;;;;5098431;28;19912;-87